Time;durP1;ratioP1;P1;durP2;ratioP2;P2;SDS_P1;SDS_P2;PMS_P1;PMS_P2;Temp;Humidity;BMP_temperature;BMP_pressure;BME280_temperature;BME280_humidity;BME280_pressure;Samples;Min_cycle;Max_cycle;Signal;HPM_P1;HPM_P2
2022/11/23 00:00:55;;;;;;;38.70;17.10;;;;;;;;;;106910;1306;22810;-79
2022/11/23 00:03:42;;;;;;;39.70;16.20;;;;;;;;;;106928;1307;22033;-79
2022/11/23 00:06:08;;;;;;;39.60;17.30;;;;;;;;;;107132;1300;22265;-80
2022/11/23 00:08:34;;;;;;;42.60;18.10;;;;;;;;;;106948;1307;22826;-79
2022/11/23 00:11:00;;;;;;;45.60;19.00;;;;;;;;;;106824;1307;22133;-80
2022/11/23 00:13:26;;;;;;;53.20;22.10;;;;;;;;;;106962;1306;21943;-79
2022/11/23 00:15:52;;;;;;;62.60;28.80;;;;;;;;;;106966;1304;22096;-79
2022/11/23 00:18:18;;;;;;;62.70;27.60;;;;;;;;;;106883;1307;22041;-80
2022/11/23 00:20:44;;;;;;;65.40;29.20;;;;;;;;;;106936;1300;22414;-80
2022/11/23 00:23:10;;;;;;;63.20;28.30;;;;;;;;;;106867;1307;22552;-79
2022/11/23 00:25:36;;;;;;;59.70;24.50;;;;;;;;;;106946;1307;22762;-79
2022/11/23 00:28:02;;;;;;;60.00;25.30;;;;;;;;;;106898;1302;22150;-80
2022/11/23 00:30:28;;;;;;;55.80;22.80;;;;;;;;;;106880;1305;22092;-79
2022/11/23 00:32:54;;;;;;;56.10;22.80;;;;;;;;;;106894;1301;22524;-79
2022/11/23 00:35:21;;;;;;;50.80;22.50;;;;;;;;;;106763;1307;22070;-79
2022/11/23 00:37:47;;;;;;;53.20;21.90;;;;;;;;;;106937;1307;22098;-79
2022/11/23 00:40:13;;;;;;;56.20;22.90;;;;;;;;;;106860;1307;22128;-79
2022/11/23 00:42:39;;;;;;;61.40;25.80;;;;;;;;;;106938;1307;22156;-79
2022/11/23 00:45:05;;;;;;;58.90;25.40;;;;;;;;;;107026;1307;21807;-79
2022/11/23 00:47:31;;;;;;;55.80;24.40;;;;;;;;;;106764;1303;21651;-79
2022/11/23 00:49:57;;;;;;;51.70;24.00;;;;;;;;;;106868;1307;22057;-80
2022/11/23 00:52:23;;;;;;;55.70;24.20;;;;;;;;;;106710;1307;22081;-79
2022/11/23 00:54:49;;;;;;;49.10;23.00;;;;;;;;;;106755;1302;22153;-79
2022/11/23 00:57:16;;;;;;;45.70;20.40;;;;;;;;;;106857;1307;22662;-79
2022/11/23 00:59:43;;;;;;;42.00;19.60;;;;;;;;;;106952;1299;22061;-79
2022/11/23 01:02:09;;;;;;;46.90;20.20;;;;;;;;;;106917;1298;21978;-80
2022/11/23 01:04:39;;;;;;;46.50;20.00;;;;;;;;;;106870;1307;22037;-79
2022/11/23 01:07:05;;;;;;;46.20;20.20;;;;;;;;;;106756;1307;21985;-79
2022/11/23 01:09:31;;;;;;;47.80;19.40;;;;;;;;;;106892;1307;22050;-79
2022/11/23 01:11:57;;;;;;;45.10;19.50;;;;;;;;;;106900;1292;22086;-80
2022/11/23 01:14:23;;;;;;;43.90;18.70;;;;;;;;;;106815;1307;22082;-80
2022/11/23 01:16:49;;;;;;;46.00;18.70;;;;;;;;;;107137;1300;22085;-79
2022/11/23 01:19:17;;;;;;;39.80;18.10;;;;;;;;;;106809;1307;22067;-79
2022/11/23 01:21:46;;;;;;;50.20;19.90;;;;;;;;;;106885;1302;22162;-79
2022/11/23 01:24:17;;;;;;;48.90;20.10;;;;;;;;;;107015;1287;22114;-79
2022/11/23 01:26:44;;;;;;;42.20;19.70;;;;;;;;;;106786;1307;22115;-80
2022/11/23 01:29:10;;;;;;;45.50;18.90;;;;;;;;;;106724;1307;22089;-79
2022/11/23 01:31:38;;;;;;;43.00;19.70;;;;;;;;;;107219;1300;22057;-79
2022/11/23 01:34:04;;;;;;;41.80;18.60;;;;;;;;;;106880;1307;22089;-79
2022/11/23 01:36:33;;;;;;;38.00;16.00;;;;;;;;;;106922;1307;22127;-79
2022/11/23 01:39:00;;;;;;;35.10;15.70;;;;;;;;;;106856;1300;22082;-80
2022/11/23 01:41:32;;;;;;;34.50;15.80;;;;;;;;;;106863;1307;22064;-79
2022/11/23 01:43:58;;;;;;;39.80;17.30;;;;;;;;;;106918;1306;22036;-80
2022/11/23 01:46:24;;;;;;;34.70;17.30;;;;;;;;;;106716;1306;22049;-79
2022/11/23 01:48:58;;;;;;;32.80;16.90;;;;;;;;;;106790;1305;22577;-79
2022/11/23 01:51:26;;;;;;;32.00;15.80;;;;;;;;;;106862;1302;22090;-79
2022/11/23 01:53:53;;;;;;;32.20;14.40;;;;;;;;;;106759;1307;22092;-79
2022/11/23 01:56:32;;;;;;;35.70;15.00;;;;;;;;;;106910;1307;22127;-79
2022/11/23 01:58:59;;;;;;;37.00;16.20;;;;;;;;;;106871;1307;22711;-79
2022/11/23 02:01:27;;;;;;;37.60;16.50;;;;;;;;;;106737;1306;22827;-79
2022/11/23 02:03:57;;;;;;;33.80;16.40;;;;;;;;;;106830;1302;22068;-80
2022/11/23 02:06:23;;;;;;;36.30;16.50;;;;;;;;;;106775;1307;22067;-79
2022/11/23 02:08:49;;;;;;;38.70;17.10;;;;;;;;;;106718;1307;22035;-79
2022/11/23 02:11:16;;;;;;;38.80;17.60;;;;;;;;;;106720;1307;22104;-79
2022/11/23 02:13:44;;;;;;;36.70;16.20;;;;;;;;;;106887;1307;22055;-79
2022/11/23 02:16:10;;;;;;;31.80;16.40;;;;;;;;;;106819;1307;22306;-80
2022/11/23 02:18:39;;;;;;;39.20;18.40;;;;;;;;;;106820;1307;22140;-79
2022/11/23 02:21:05;;;;;;;38.10;18.30;;;;;;;;;;106892;1307;22403;-79
2022/11/23 02:23:54;;;;;;;38.60;18.50;;;;;;;;;;106668;1307;22061;-79
2022/11/23 02:26:21;;;;;;;46.00;21.60;;;;;;;;;;106799;1307;22048;-80
2022/11/23 02:29:06;;;;;;;42.80;19.50;;;;;;;;;;106789;1302;22077;-79
2022/11/23 02:31:32;;;;;;;39.10;18.50;;;;;;;;;;106755;1304;22700;-80
2022/11/23 02:33:58;;;;;;;40.50;18.50;;;;;;;;;;106732;1299;22022;-80
2022/11/23 02:36:24;;;;;;;37.50;16.90;;;;;;;;;;106696;1307;22162;-79
2022/11/23 02:38:51;;;;;;;37.20;18.20;;;;;;;;;;106746;1307;22720;-79
2022/11/23 02:41:17;;;;;;;35.40;17.10;;;;;;;;;;106951;1287;22370;-79
2022/11/23 02:43:45;;;;;;;38.60;17.50;;;;;;;;;;106684;1307;22082;-80
2022/11/23 02:46:12;;;;;;;37.10;16.40;;;;;;;;;;106801;1307;22088;-80
2022/11/23 02:48:38;;;;;;;35.20;16.40;;;;;;;;;;106712;1307;22756;-80
2022/11/23 02:51:04;;;;;;;36.40;16.60;;;;;;;;;;106896;1307;21918;-80
2022/11/23 02:53:31;;;;;;;36.40;16.40;;;;;;;;;;106733;1307;22657;-79
2022/11/23 02:55:57;;;;;;;35.10;16.40;;;;;;;;;;106773;1302;22070;-80
2022/11/23 02:58:23;;;;;;;35.90;17.20;;;;;;;;;;106958;1302;22117;-79
2022/11/23 03:00:50;;;;;;;36.20;18.80;;;;;;;;;;106733;1308;22881;-79
2022/11/23 03:03:19;;;;;;;38.50;18.70;;;;;;;;;;106843;1307;22100;-79
2022/11/23 03:05:45;;;;;;;35.30;17.60;;;;;;;;;;106874;1307;22144;-80
2022/11/23 03:08:11;;;;;;;38.40;18.80;;;;;;;;;;106994;1300;22136;-80
2022/11/23 03:10:38;;;;;;;40.40;20.60;;;;;;;;;;106960;1300;22054;-79
2022/11/23 03:13:05;;;;;;;43.20;20.60;;;;;;;;;;106661;1307;22661;-80
2022/11/23 03:15:35;;;;;;;36.60;17.80;;;;;;;;;;106749;1307;22057;-79
2022/11/23 03:18:03;;;;;;;35.30;15.40;;;;;;;;;;106733;1307;22064;-80
2022/11/23 03:20:31;;;;;;;38.70;17.40;;;;;;;;;;106725;1307;22081;-80
2022/11/23 03:22:58;;;;;;;39.00;18.80;;;;;;;;;;106682;1307;22106;-79
2022/11/23 03:25:26;;;;;;;39.60;19.00;;;;;;;;;;106652;1307;22959;-80
2022/11/23 03:27:53;;;;;;;35.00;17.50;;;;;;;;;;106720;1307;22069;-80
2022/11/23 03:30:21;;;;;;;35.60;17.00;;;;;;;;;;106745;1307;22079;-80
2022/11/23 03:32:47;;;;;;;34.80;17.70;;;;;;;;;;106724;1307;22169;-79
2022/11/23 03:35:14;;;;;;;39.20;18.50;;;;;;;;;;106644;1307;22141;-79
2022/11/23 03:37:58;;;;;;;34.80;17.60;;;;;;;;;;106747;1307;22066;-79
2022/11/23 03:40:25;;;;;;;36.50;17.00;;;;;;;;;;106679;1307;22061;-80
2022/11/23 03:43:15;;;;;;;40.00;17.20;;;;;;;;;;106762;1307;22064;-80
2022/11/23 03:45:42;;;;;;;37.70;18.90;;;;;;;;;;106723;1307;22092;-80
2022/11/23 03:48:08;;;;;;;34.10;16.70;;;;;;;;;;106751;1310;22134;-79
2022/11/23 03:50:35;;;;;;;38.10;19.40;;;;;;;;;;106761;1307;22807;-80
2022/11/23 03:53:01;;;;;;;36.20;19.20;;;;;;;;;;106692;1304;22093;-79
2022/11/23 03:55:28;;;;;;;40.10;18.30;;;;;;;;;;106664;1297;22084;-80
2022/11/23 03:57:58;;;;;;;37.20;17.60;;;;;;;;;;106694;1307;22322;-80
2022/11/23 04:00:25;;;;;;;41.40;18.40;;;;;;;;;;106739;1307;22121;-79
2022/11/23 04:02:52;;;;;;;37.50;17.50;;;;;;;;;;106746;1310;22063;-80
2022/11/23 04:05:42;;;;;;;32.20;14.50;;;;;;;;;;106862;1305;21692;-80
2022/11/23 04:08:41;;;;;;;31.70;14.20;;;;;;;;;;106848;1307;22812;-79
2022/11/23 04:11:12;;;;;;;31.00;13.80;;;;;;;;;;106854;1298;22089;-79
2022/11/23 04:13:45;;;;;;;31.40;14.40;;;;;;;;;;106692;1310;22071;-79
2022/11/23 04:16:15;;;;;;;27.80;13.70;;;;;;;;;;106642;1310;22068;-79
2022/11/23 04:18:44;;;;;;;28.20;13.30;;;;;;;;;;106722;1310;22070;-79
2022/11/23 04:21:12;;;;;;;40.50;17.80;;;;;;;;;;106780;1309;22112;-79
2022/11/23 04:23:41;;;;;;;38.00;18.00;;;;;;;;;;106668;1310;21981;-80
2022/11/23 04:26:10;;;;;;;31.80;13.50;;;;;;;;;;106825;1308;21955;-80
2022/11/23 04:28:41;;;;;;;29.30;13.10;;;;;;;;;;106704;1310;21927;-80
2022/11/23 04:31:10;;;;;;;27.10;12.30;;;;;;;;;;106657;1311;22067;-79
2022/11/23 04:33:47;;;;;;;22.50;11.20;;;;;;;;;;106732;1310;22065;-80
2022/11/23 04:36:18;;;;;;;28.80;12.90;;;;;;;;;;106871;1310;22067;-80
2022/11/23 04:38:45;;;;;;;29.60;12.80;;;;;;;;;;106643;1311;22083;-79
2022/11/23 04:41:16;;;;;;;27.10;12.50;;;;;;;;;;106760;1310;22725;-80
2022/11/23 04:43:47;;;;;;;26.30;12.50;;;;;;;;;;106705;1309;22064;-79
2022/11/23 04:46:16;;;;;;;25.10;12.70;;;;;;;;;;106836;1308;22184;-79
2022/11/23 04:48:45;;;;;;;29.40;14.00;;;;;;;;;;106718;1308;22743;-80
2022/11/23 04:51:15;;;;;;;29.70;14.00;;;;;;;;;;106637;1310;22071;-79
2022/11/23 04:53:44;;;;;;;33.10;14.10;;;;;;;;;;106735;1302;22114;-79
2022/11/23 04:56:14;;;;;;;35.50;15.40;;;;;;;;;;106835;1307;23077;-80
2022/11/23 04:58:44;;;;;;;33.50;15.70;;;;;;;;;;106734;1310;22118;-80
2022/11/23 05:01:12;;;;;;;28.60;13.10;;;;;;;;;;106732;1310;22071;-79
2022/11/23 05:04:00;;;;;;;32.80;14.40;;;;;;;;;;106817;1310;22039;-80
2022/11/23 05:06:29;;;;;;;30.60;13.90;;;;;;;;;;106714;1310;22395;-79
2022/11/23 05:08:58;;;;;;;32.20;13.60;;;;;;;;;;106729;1310;22141;-79
2022/11/23 05:18:31;;;;;;;32.20;15.50;;;;;;;;;;100356;1340;544782;-86
2022/11/23 05:20:58;;;;;;;31.70;14.30;;;;;;;;;;103046;1317;24578;-79
2022/11/23 05:23:26;;;;;;;44.10;17.50;;;;;;;;;;102408;1317;22479;-86
2022/11/23 05:25:53;;;;;;;35.90;18.00;;;;;;;;;;102932;1313;25239;-81
2022/11/23 05:28:20;;;;;;;32.80;14.50;;;;;;;;;;102701;1310;22478;-83
2022/11/23 05:30:47;;;;;;;39.00;16.70;;;;;;;;;;102573;1313;26056;-81
2022/11/23 05:33:14;;;;;;;31.70;16.90;;;;;;;;;;101736;1313;1472187;-84
2022/11/23 05:35:42;;;;;;;36.30;16.90;;;;;;;;;;103049;1313;22469;-83
2022/11/23 05:38:08;;;;;;;35.60;15.70;;;;;;;;;;103025;1311;22480;-80
2022/11/23 05:40:35;;;;;;;34.50;16.10;;;;;;;;;;103091;1312;25258;-83
2022/11/23 05:43:03;;;;;;;31.40;16.20;;;;;;;;;;103139;1313;25317;-82
2022/11/23 05:45:30;;;;;;;34.80;16.70;;;;;;;;;;107024;1299;22049;-78
2022/11/23 05:47:58;;;;;;;31.80;15.50;;;;;;;;;;106936;1304;22167;-78
2022/11/23 05:50:43;;;;;;;32.80;16.30;;;;;;;;;;106972;1303;22898;-78
2022/11/23 05:53:26;;;;;;;34.70;16.00;;;;;;;;;;107035;1304;22049;-78
2022/11/23 05:56:01;;;;;;;35.40;15.50;;;;;;;;;;106951;1303;22208;-78
2022/11/23 05:58:28;;;;;;;40.60;17.00;;;;;;;;;;107028;1303;21905;-78
2022/11/23 06:00:56;;;;;;;38.30;17.00;;;;;;;;;;107062;1304;22190;-78
2022/11/23 06:03:24;;;;;;;46.60;17.00;;;;;;;;;;107029;1304;22152;-78
2022/11/23 06:05:51;;;;;;;47.00;21.10;;;;;;;;;;107344;1297;22045;-78
2022/11/23 06:08:20;;;;;;;57.60;23.10;;;;;;;;;;107305;1296;22076;-78
2022/11/23 06:10:47;;;;;;;51.60;21.70;;;;;;;;;;106921;1303;22140;-78
2022/11/23 06:13:15;;;;;;;50.50;21.30;;;;;;;;;;106948;1306;21959;-79
2022/11/23 06:15:43;;;;;;;47.30;21.40;;;;;;;;;;106965;1303;22724;-79
2022/11/23 06:18:11;;;;;;;41.60;18.70;;;;;;;;;;106888;1304;22114;-78
2022/11/23 06:20:45;;;;;;;43.30;19.50;;;;;;;;;;106972;1303;22614;-79
2022/11/23 06:23:12;;;;;;;38.70;20.70;;;;;;;;;;106948;1304;22127;-78
2022/11/23 06:25:40;;;;;;;43.00;20.40;;;;;;;;;;107099;1302;22805;-78
2022/11/23 06:28:14;;;;;;;41.20;19.30;;;;;;;;;;107089;1303;22096;-80
2022/11/23 06:30:44;;;;;;;42.40;20.50;;;;;;;;;;106921;1307;22082;-80
2022/11/23 06:33:12;;;;;;;50.20;25.40;;;;;;;;;;106918;1302;22069;-80
2022/11/23 06:35:51;;;;;;;55.40;26.50;;;;;;;;;;106959;1302;22780;-79
2022/11/23 06:38:18;;;;;;;49.20;22.90;;;;;;;;;;106965;1306;22107;-78
2022/11/23 06:40:45;;;;;;;70.90;27.70;;;;;;;;;;107061;1292;22222;-78
2022/11/23 06:43:12;;;;;;;80.00;31.60;;;;;;;;;;106957;1304;22069;-78
2022/11/23 06:45:42;;;;;;;86.70;33.50;;;;;;;;;;106981;1304;22789;-78
2022/11/23 06:48:11;;;;;;;88.60;34.70;;;;;;;;;;107085;1299;21944;-78
2022/11/23 06:50:41;;;;;;;64.70;27.60;;;;;;;;;;107035;1306;22055;-78
2022/11/23 06:53:11;;;;;;;63.90;26.50;;;;;;;;;;106999;1305;22637;-78
2022/11/23 06:55:42;;;;;;;55.50;25.60;;;;;;;;;;107171;1297;22068;-78
2022/11/23 06:58:09;;;;;;;82.10;31.40;;;;;;;;;;107138;1285;22099;-78
2022/11/23 07:00:36;;;;;;;87.70;34.80;;;;;;;;;;106895;1304;22173;-78
2022/11/23 07:03:03;;;;;;;74.30;30.90;;;;;;;;;;107322;1285;22717;-78
2022/11/23 07:05:32;;;;;;;63.50;27.30;;;;;;;;;;107059;1304;22098;-79
2022/11/23 07:07:59;;;;;;;70.50;26.60;;;;;;;;;;106944;1304;22061;-79
2022/11/23 07:10:26;;;;;;;56.00;25.50;;;;;;;;;;106887;1307;22053;-78
2022/11/23 07:16:49;;;;;;;66.20;26.90;;;;;;;;;;107055;1307;22166;-79
2022/11/23 07:19:18;;;;;;;70.90;31.90;;;;;;;;;;106943;1305;22848;-78
2022/11/23 07:21:45;;;;;;;70.70;32.70;;;;;;;;;;106879;1304;22086;-79
2022/11/23 07:24:12;;;;;;;80.40;35.80;;;;;;;;;;106949;1304;22073;-79
2022/11/23 07:26:40;;;;;;;98.20;38.10;;;;;;;;;;107112;1304;22084;-79
2022/11/23 07:29:07;;;;;;;104.40;38.30;;;;;;;;;;107005;1298;22047;-79
2022/11/23 07:31:34;;;;;;;93.40;36.30;;;;;;;;;;106862;1307;22084;-78
2022/11/23 07:34:00;;;;;;;88.70;36.50;;;;;;;;;;106831;1307;22026;-79
2022/11/23 07:36:28;;;;;;;87.80;34.50;;;;;;;;;;106814;1307;22083;-79
2022/11/23 07:38:55;;;;;;;89.90;36.70;;;;;;;;;;106785;1309;22050;-78
2022/11/23 07:41:22;;;;;;;91.80;38.20;;;;;;;;;;107272;1291;22066;-78
2022/11/23 07:44:09;;;;;;;101.10;40.10;;;;;;;;;;106918;1304;22050;-79
2022/11/23 07:46:36;;;;;;;94.20;41.20;;;;;;;;;;106945;1304;22064;-79
2022/11/23 07:49:03;;;;;;;101.50;41.60;;;;;;;;;;106928;1299;22683;-78
2022/11/23 07:51:29;;;;;;;86.30;38.40;;;;;;;;;;106916;1305;22035;-79
2022/11/23 07:53:56;;;;;;;88.50;40.20;;;;;;;;;;106786;1307;22038;-80
2022/11/23 07:56:23;;;;;;;105.50;43.10;;;;;;;;;;106944;1307;22721;-80
2022/11/23 07:58:49;;;;;;;94.30;41.60;;;;;;;;;;106922;1307;21950;-79
2022/11/23 08:01:17;;;;;;;86.40;40.60;;;;;;;;;;106935;1300;22162;-79
2022/11/23 08:03:44;;;;;;;77.60;37.70;;;;;;;;;;106943;1307;22069;-79
2022/11/23 08:06:12;;;;;;;84.40;39.30;;;;;;;;;;106951;1307;22949;-79
2022/11/23 08:08:39;;;;;;;80.50;39.30;;;;;;;;;;106936;1307;22082;-79
2022/11/23 08:11:06;;;;;;;87.60;40.90;;;;;;;;;;106900;1307;22220;-80
2022/11/23 08:13:38;;;;;;;81.40;41.40;;;;;;;;;;107131;1301;22041;-80
2022/11/23 08:16:05;;;;;;;80.50;38.90;;;;;;;;;;106944;1307;22072;-80
2022/11/23 08:18:32;;;;;;;95.50;39.00;;;;;;;;;;106959;1305;22080;-79
2022/11/23 08:20:59;;;;;;;93.50;37.40;;;;;;;;;;106745;1307;22304;-79
2022/11/23 08:23:26;;;;;;;95.30;39.40;;;;;;;;;;106958;1307;22082;-79
2022/11/23 08:25:53;;;;;;;98.30;39.90;;;;;;;;;;106950;1306;22171;-79
2022/11/23 08:28:20;;;;;;;100.00;38.40;;;;;;;;;;107031;1306;22759;-79
2022/11/23 08:30:47;;;;;;;87.20;36.20;;;;;;;;;;106990;1306;22051;-80
2022/11/23 08:33:14;;;;;;;84.80;36.80;;;;;;;;;;106902;1307;22268;-79
2022/11/23 08:35:41;;;;;;;89.10;38.10;;;;;;;;;;106963;1306;22063;-80
2022/11/23 08:38:09;;;;;;;91.00;40.40;;;;;;;;;;106802;1306;22132;-80
2022/11/23 08:40:36;;;;;;;86.30;37.90;;;;;;;;;;106923;1308;22054;-80
2022/11/23 08:43:04;;;;;;;94.20;39.60;;;;;;;;;;106938;1307;22060;-79
2022/11/23 08:45:31;;;;;;;92.70;39.30;;;;;;;;;;106948;1303;21920;-80
2022/11/23 08:48:01;;;;;;;102.00;39.90;;;;;;;;;;106941;1307;22073;-80
2022/11/23 08:50:29;;;;;;;94.30;38.20;;;;;;;;;;106928;1310;22039;-80
2022/11/23 08:52:56;;;;;;;99.60;43.00;;;;;;;;;;106925;1307;22062;-80
2022/11/23 08:55:24;;;;;;;73.70;31.20;;;;;;;;;;106782;1310;22764;-79
2022/11/23 08:57:53;;;;;;;77.00;31.70;;;;;;;;;;106764;1308;22651;-80
2022/11/23 09:00:20;;;;;;;75.10;32.90;;;;;;;;;;107176;1298;22514;-80
2022/11/23 09:02:47;;;;;;;80.00;33.50;;;;;;;;;;106974;1301;22045;-80
2022/11/23 09:05:14;;;;;;;64.10;30.70;;;;;;;;;;106990;1307;22091;-79
2022/11/23 09:07:40;;;;;;;53.80;26.10;;;;;;;;;;106936;1299;22039;-80
2022/11/23 09:10:07;;;;;;;54.10;24.30;;;;;;;;;;106955;1307;22368;-80
2022/11/23 09:12:34;;;;;;;43.80;21.60;;;;;;;;;;106998;1295;22081;-80
2022/11/23 09:15:01;;;;;;;39.90;20.40;;;;;;;;;;106700;1310;22063;-79
2022/11/23 09:17:29;;;;;;;35.80;17.50;;;;;;;;;;106770;1310;22078;-80
2022/11/23 09:19:56;;;;;;;33.30;17.10;;;;;;;;;;106722;1307;22104;-81
2022/11/23 09:22:23;;;;;;;34.10;16.10;;;;;;;;;;106699;1309;22136;-80
2022/11/23 09:24:49;;;;;;;33.80;16.90;;;;;;;;;;106891;1306;22750;-80
2022/11/23 09:27:16;;;;;;;37.40;17.80;;;;;;;;;;106780;1309;22099;-80
2022/11/23 09:29:43;;;;;;;33.70;17.30;;;;;;;;;;106914;1307;22107;-80
2022/11/23 09:32:10;;;;;;;36.80;18.80;;;;;;;;;;106908;1306;22372;-80
2022/11/23 09:34:37;;;;;;;35.40;18.90;;;;;;;;;;106731;1309;22395;-80
2022/11/23 09:37:03;;;;;;;36.20;19.10;;;;;;;;;;106684;1307;22684;-80
2022/11/23 09:39:30;;;;;;;39.30;19.90;;;;;;;;;;106720;1307;22747;-80
2022/11/23 09:42:09;;;;;;;39.50;19.30;;;;;;;;;;106693;1307;22805;-80
2022/11/23 09:44:54;;;;;;;39.20;19.60;;;;;;;;;;107013;1307;22061;-79
2022/11/23 09:47:33;;;;;;;42.20;20.70;;;;;;;;;;107032;1307;22164;-79
2022/11/23 09:50:06;;;;;;;50.70;25.60;;;;;;;;;;106946;1306;22456;-80
2022/11/23 09:52:34;;;;;;;47.10;26.70;;;;;;;;;;106926;1299;22739;-81
2022/11/23 09:55:08;;;;;;;49.70;25.90;;;;;;;;;;106743;1307;22116;-80
2022/11/23 09:57:35;;;;;;;48.80;24.90;;;;;;;;;;106742;1307;22088;-80
2022/11/23 10:00:02;;;;;;;47.00;24.50;;;;;;;;;;106728;1307;22771;-80
2022/11/23 10:02:32;;;;;;;50.50;23.90;;;;;;;;;;106916;1307;22128;-80
2022/11/23 10:05:00;;;;;;;46.30;23.80;;;;;;;;;;106843;1308;22058;-80
2022/11/23 10:07:48;;;;;;;49.70;24.20;;;;;;;;;;106980;1307;22725;-80
2022/11/23 10:10:33;;;;;;;46.20;24.60;;;;;;;;;;106979;1306;22031;-80
2022/11/23 10:13:08;;;;;;;47.80;24.80;;;;;;;;;;106957;1299;22792;-80
2022/11/23 10:15:43;;;;;;;48.40;24.80;;;;;;;;;;106745;1307;22757;-80
2022/11/23 10:18:10;;;;;;;46.50;24.20;;;;;;;;;;106601;1310;22069;-80
2022/11/23 10:20:37;;;;;;;42.90;23.20;;;;;;;;;;106599;1310;22082;-80
2022/11/23 10:23:11;;;;;;;50.10;27.40;;;;;;;;;;106670;1309;22089;-79
2022/11/23 10:25:41;;;;;;;47.50;23.80;;;;;;;;;;106656;1309;22076;-80
2022/11/23 10:28:11;;;;;;;42.30;22.20;;;;;;;;;;106648;1310;22102;-80
2022/11/23 10:30:38;;;;;;;38.40;20.00;;;;;;;;;;106701;1310;22043;-80
2022/11/23 10:33:34;;;;;;;37.90;20.30;;;;;;;;;;106737;1309;22769;-80
2022/11/23 10:36:01;;;;;;;37.40;19.90;;;;;;;;;;106225;1315;22187;-81
2022/11/23 10:38:28;;;;;;;44.40;23.00;;;;;;;;;;106186;1315;22936;-80
2022/11/23 10:41:03;;;;;;;39.60;21.40;;;;;;;;;;106046;1310;22886;-80
2022/11/23 10:43:50;;;;;;;43.00;22.20;;;;;;;;;;106176;1316;22126;-80
2022/11/23 10:46:32;;;;;;;41.80;22.00;;;;;;;;;;105577;1321;22102;-80
2022/11/23 10:49:19;;;;;;;42.30;22.40;;;;;;;;;;105653;1320;22891;-80
2022/11/23 10:51:50;;;;;;;42.50;22.40;;;;;;;;;;105671;1320;22093;-80
2022/11/23 10:54:26;;;;;;;40.70;22.20;;;;;;;;;;105559;1321;22352;-80
2022/11/23 10:56:54;;;;;;;48.70;28.50;;;;;;;;;;105503;1320;22166;-80
2022/11/23 10:59:25;;;;;;;45.90;27.80;;;;;;;;;;105557;1321;22258;-80
2022/11/23 11:02:17;;;;;;;39.60;22.50;;;;;;;;;;105496;1323;22089;-80
2022/11/23 11:04:45;;;;;;;43.90;25.80;;;;;;;;;;105603;1320;22121;-80
2022/11/23 11:07:11;;;;;;;43.20;23.10;;;;;;;;;;105505;1322;22126;-80
2022/11/23 11:09:38;;;;;;;44.80;22.40;;;;;;;;;;105656;1319;22159;-80
2022/11/23 11:12:14;;;;;;;36.20;19.90;;;;;;;;;;105600;1317;22149;-80
2022/11/23 11:14:53;;;;;;;34.90;18.90;;;;;;;;;;106089;1315;22373;-80
2022/11/23 11:17:26;;;;;;;37.10;19.60;;;;;;;;;;106297;1313;22123;-80
2022/11/23 11:19:54;;;;;;;38.50;21.60;;;;;;;;;;106471;1312;22139;-80
2022/11/23 11:22:24;;;;;;;36.90;19.50;;;;;;;;;;106242;1314;22123;-80
2022/11/23 11:24:52;;;;;;;36.70;19.40;;;;;;;;;;106625;1310;22330;-80
2022/11/23 11:27:23;;;;;;;36.80;19.90;;;;;;;;;;106593;1310;22152;-80
2022/11/23 11:29:52;;;;;;;34.40;20.30;;;;;;;;;;106574;1310;22785;-80
2022/11/23 11:32:39;;;;;;;43.30;24.40;;;;;;;;;;106590;1309;22199;-80
2022/11/23 11:35:24;;;;;;;43.00;22.80;;;;;;;;;;106665;1297;22342;-80
2022/11/23 11:37:59;;;;;;;41.20;22.50;;;;;;;;;;106710;1309;22079;-80
2022/11/23 11:40:28;;;;;;;42.70;21.70;;;;;;;;;;106677;1310;21999;-80
2022/11/23 11:43:08;;;;;;;44.90;24.40;;;;;;;;;;106849;1302;21958;-81
2022/11/23 11:45:37;;;;;;;41.80;21.80;;;;;;;;;;106708;1310;22271;-80
2022/11/23 11:48:14;;;;;;;45.70;22.80;;;;;;;;;;106487;1309;22095;-80
2022/11/23 11:51:02;;;;;;;46.00;25.10;;;;;;;;;;106748;1309;22167;-80
2022/11/23 11:53:32;;;;;;;43.00;23.50;;;;;;;;;;106514;1310;22089;-79
2022/11/23 11:56:03;;;;;;;44.00;22.10;;;;;;;;;;106533;1308;22788;-81
2022/11/23 11:58:31;;;;;;;43.80;21.70;;;;;;;;;;106736;1310;22798;-79
2022/11/23 12:01:08;;;;;;;44.10;24.30;;;;;;;;;;106709;1310;22074;-80
2022/11/23 12:03:47;;;;;;;50.90;28.20;;;;;;;;;;106666;1308;22140;-80
2022/11/23 12:06:20;;;;;;;44.50;24.60;;;;;;;;;;106643;1309;22113;-80
2022/11/23 12:08:55;;;;;;;46.30;25.90;;;;;;;;;;106664;1309;22045;-79
2022/11/23 12:11:24;;;;;;;47.80;24.90;;;;;;;;;;106506;1310;22180;-81
2022/11/23 12:13:55;;;;;;;48.80;24.70;;;;;;;;;;106551;1302;22199;-79
2022/11/23 12:16:33;;;;;;;49.40;23.70;;;;;;;;;;106347;1310;22113;-80
2022/11/23 12:19:22;;;;;;;41.90;22.50;;;;;;;;;;106680;1304;22705;-80
2022/11/23 12:22:02;;;;;;;44.50;23.60;;;;;;;;;;106715;1310;22057;-80
2022/11/23 12:25:10;;;;;;;49.90;25.20;;;;;;;;;;106625;1310;22085;-80
2022/11/23 12:27:48;;;;;;;48.40;23.60;;;;;;;;;;106581;1309;22097;-79
2022/11/23 12:30:21;;;;;;;43.70;23.80;;;;;;;;;;106577;1309;22791;-80
2022/11/23 12:33:00;;;;;;;46.40;24.70;;;;;;;;;;106557;1309;22076;-80
2022/11/23 12:35:41;;;;;;;46.80;24.10;;;;;;;;;;106596;1310;22782;-80
2022/11/23 12:38:29;;;;;;;43.60;22.00;;;;;;;;;;106624;1306;21980;-81
2022/11/23 12:41:07;;;;;;;49.70;27.20;;;;;;;;;;106635;1310;22647;-81
2022/11/23 12:43:54;;;;;;;49.20;28.70;;;;;;;;;;106648;1309;22855;-81
2022/11/23 12:46:49;;;;;;;40.40;23.80;;;;;;;;;;106652;1310;22080;-81
2022/11/23 12:49:33;;;;;;;41.00;20.30;;;;;;;;;;106526;1306;22151;-81
2022/11/23 12:52:25;;;;;;;39.50;19.20;;;;;;;;;;106379;1310;23143;-81
2022/11/23 12:55:15;;;;;;;36.40;18.90;;;;;;;;;;106556;1310;22891;-81
2022/11/23 12:57:49;;;;;;;35.00;19.10;;;;;;;;;;106680;1309;22110;-81
2022/11/23 13:00:20;;;;;;;35.80;19.30;;;;;;;;;;106717;1310;21968;-81
2022/11/23 13:03:07;;;;;;;36.00;19.50;;;;;;;;;;106657;1310;22061;-81
2022/11/23 13:06:00;;;;;;;35.10;19.30;;;;;;;;;;106667;1308;22074;-81
2022/11/23 13:09:01;;;;;;;40.80;19.30;;;;;;;;;;106569;1309;22015;-81
2022/11/23 13:18:50;;;;;;;46.70;22.90;;;;;;;;;;100299;1342;545239;-80
2022/11/23 13:21:36;;;;;;;42.80;23.50;;;;;;;;;;102546;1296;22478;-85
2022/11/23 13:24:02;;;;;;;47.30;23.70;;;;;;;;;;102664;1319;22566;-79
2022/11/23 13:26:30;;;;;;;39.20;20.00;;;;;;;;;;103261;1320;22546;-79
2022/11/23 13:28:57;;;;;;;38.50;19.10;;;;;;;;;;102412;1319;22489;-81
2022/11/23 13:31:25;;;;;;;37.80;18.90;;;;;;;;;;102357;1307;1346996;-83
2022/11/23 13:33:54;;;;;;;41.50;19.90;;;;;;;;;;103618;1307;22486;-82
2022/11/23 13:36:29;;;;;;;41.40;20.10;;;;;;;;;;103295;1307;22479;-80
2022/11/23 13:38:59;;;;;;;36.90;20.20;;;;;;;;;;103559;1307;22478;-80
2022/11/23 13:41:54;;;;;;;41.70;21.70;;;;;;;;;;103508;1298;24340;-80
2022/11/23 13:44:23;;;;;;;48.10;24.30;;;;;;;;;;103336;1307;23873;-84
2022/11/23 13:47:01;;;;;;;51.40;25.20;;;;;;;;;;103356;1302;22981;-81
2022/11/23 13:49:40;;;;;;;54.30;26.50;;;;;;;;;;103484;1307;22570;-81
2022/11/23 13:52:21;;;;;;;56.00;27.90;;;;;;;;;;103520;1307;22461;-81
2022/11/23 13:54:54;;;;;;;58.60;30.40;;;;;;;;;;103525;1303;22463;-83
2022/11/23 13:57:20;;;;;;;64.20;31.10;;;;;;;;;;103514;1303;22722;-84
2022/11/23 13:59:46;;;;;;;64.20;32.10;;;;;;;;;;103487;1307;25274;-81
2022/11/23 14:02:12;;;;;;;65.90;31.60;;;;;;;;;;103594;1307;23070;-82
2022/11/23 14:04:39;;;;;;;65.70;33.60;;;;;;;;;;103625;1307;22488;-82
2022/11/23 14:07:06;;;;;;;63.40;31.10;;;;;;;;;;103559;1307;22538;-82
2022/11/23 14:09:42;;;;;;;64.80;32.10;;;;;;;;;;103473;1297;23058;-86
2022/11/23 14:12:08;;;;;;;63.70;31.00;;;;;;;;;;103779;1308;22493;-81
2022/11/23 14:14:43;;;;;;;63.20;29.80;;;;;;;;;;103489;1308;22472;-80
2022/11/23 14:17:18;;;;;;;56.00;28.70;;;;;;;;;;103593;1302;25285;-84
2022/11/23 14:19:53;;;;;;;58.40;29.30;;;;;;;;;;103547;1307;22454;-81
2022/11/23 14:22:32;;;;;;;70.10;32.60;;;;;;;;;;103487;1307;22463;-83
2022/11/23 14:25:22;;;;;;;63.80;30.80;;;;;;;;;;103464;1307;25652;-80
2022/11/23 14:28:01;;;;;;;67.60;32.60;;;;;;;;;;103485;1307;24244;-84
2022/11/23 14:30:38;;;;;;;67.90;33.90;;;;;;;;;;103425;1307;25653;-82
2022/11/23 14:33:10;;;;;;;68.10;34.10;;;;;;;;;;103435;1309;24260;-81
2022/11/23 14:35:36;;;;;;;69.40;34.50;;;;;;;;;;103311;1309;22543;-80
2022/11/23 14:38:11;;;;;;;67.30;34.20;;;;;;;;;;103428;1301;22582;-82
2022/11/23 14:41:04;;;;;;;68.40;34.10;;;;;;;;;;103289;1307;22694;-84
2022/11/23 14:43:32;;;;;;;74.30;35.30;;;;;;;;;;103161;1307;25243;-80